Nyk Apollo — HOQM — position and weather

sailwx.info

Track history (hours):
 
Tides and Currents Weather Stations Pressure Air Temp Water Temp Dewpoint Dewpoint Depression Visibility Wind Speed Wind Dir Waves Ship Positions

Nyk Apollo

Last reported at 2018-Apr-23 06:39 UTC. Time now 2018-Apr-24 14:33 UTC.
Position N 22°10' E 119°57'.

Length 299.9 m; beam 40 m.

Type: Cargo ship. MMSI: 355981000.

Date/timePositionNaut miles runAvg speedWind from/ knotsBaromVisibWave heightAir tempDewpointWater temp
2018-Apr-23 06:39N 22°10' E 119°57'320.0
2018-Apr-23 06:29N 22°13' E 119°59'919.4
2018-Apr-23 06:00N 22°22' E 120°03'1019.2
2018-Apr-23 05:30N 22°30' E 120°09'714.8
2018-Apr-23 05:00N 22°33' E 120°16'4 7.6
2018-Apr-23 04:30N 22°33' E 120°20'0 0.6
2018-Apr-23 04:01N 22°33' E 120°20'0 0.1
2018-Apr-23 03:31N 22°33' E 120°20'0 0.0
2018-Apr-23 02:46N 22°33' E 120°20'0 0.1
2018-Apr-23 02:28N 22°33' E 120°20'0 0.0
2018-Apr-23 01:52N 22°33' E 120°20'0 0.0
2018-Apr-23 01:28N 22°33' E 120°20'0 0.0
2018-Apr-23 00:58N 22°33' E 120°20'0 0.0
2018-Apr-23 00:24N 22°33' E 120°20'0 0.0
2018-Apr-22 23:58N 22°33' E 120°20'0 0.0
2018-Apr-22 23:28N 22°33' E 120°20'0 0.1
2018-Apr-22 22:55N 22°33' E 120°20'0 0.0
2018-Apr-22 22:30N 22°33' E 120°20'0 0.0
2018-Apr-22 21:58N 22°33' E 120°20'0 0.1
2018-Apr-22 21:28N 22°33' E 120°20'0 0.0
2018-Apr-22 21:00N 22°33' E 120°20'1 1.4
2018-Apr-22 20:29N 22°33' E 120°19'3 7.1
2018-Apr-22 20:00N 22°32' E 120°16'3 6.3
2018-Apr-22 19:30N 22°33' E 120°12'510.2
2018-Apr-22 19:00N 22°37' E 120°09'5 9.8
2018-Apr-22 18:30N 22°42' E 120°08'5 9.8
2018-Apr-22 18:00N 22°46' E 120°05'714.7
2018-Apr-22 17:31N 22°52' E 120°00'714.8
2018-Apr-22 17:00N 22°59' E 119°57'714.2
2018-Apr-22 16:29N 23°06' E 119°55'714.2
2018-Apr-22 16:00N 23°12' E 119°55'714.2
2018-Apr-22 15:30N 23°19' E 119°54'815.8
2018-Apr-22 15:00N 23°27' E 119°55'816.1
2018-Apr-22 14:30N 23°35' E 119°55'816.3
2018-Apr-22 14:00N 23°43' E 119°57'917.3
2018-Apr-22 13:30N 23°52' E 119°58'917.9
2018-Apr-22 13:00N 23°60' E 120°03'917.7
2018-Apr-22 12:30N 24°07' E 120°08'917.8
2018-Apr-22 12:00N 24°14' E 120°14'917.8
2018-Apr-22 11:30N 24°21' E 120°20'917.4
2018-Apr-22 11:00N 24°29' E 120°25'917.2
2018-Apr-22 10:31N 24°36' E 120°30'1017.0
2018-Apr-22 09:56N 24°45' E 120°35'716.6
2018-Apr-22 09:30N 24°51' E 120°38'916.9
2018-Apr-22 08:59N 24°58' E 120°44'817.0
2018-Apr-22 08:30N 25°05' E 120°49'817.1
2018-Apr-22 08:00N 25°12' E 120°54'5518.3
2018-Apr-22 05:01N 25°51' E 121°36'119.1
2018-Apr-22 04:58N 25°52' E 121°37'918.6
2018-Apr-22 04:28N 25°58' E 121°45'918.5
2018-Apr-22 04:00N 26°03' E 121°53'918.1
2018-Apr-22 03:28N 26°09' E 122°01'66618.2
2018-Apr-20 14:46N 32°05' E 132°46'1918.1
2018-Apr-20 13:42N 32°15' E 133°05'717.8
2018-Apr-20 13:20N 32°18' E 133°12'618.4
2018-Apr-20 12:59N 32°22' E 133°19'7918.2
2018-Apr-20 08:38N 33°08' E 134°36'218.8
2018-Apr-20 08:30N 33°09' E 134°38'917.8
2018-Apr-20 08:00N 33°17' E 134°43'1018.6
2018-Apr-20 07:28N 33°26' E 134°47'918.8
2018-Apr-20 07:00N 33°34' E 134°50'1018.8
2018-Apr-20 06:30N 33°43' E 134°54'1019.2
2018-Apr-20 06:00N 33°53' E 134°54'919.1
2018-Apr-20 05:30N 34°02' E 134°55'917.7
2018-Apr-20 05:00N 34°11' E 134°58'612.9
2018-Apr-20 04:30N 34°17' E 134°58'918.1
2018-Apr-20 04:00N 34°25' E 135°04'1019.5
2018-Apr-20 03:30N 34°32' E 135°13'815.1
2018-Apr-20 03:00N 34°39' E 135°16'1 2.1
2018-Apr-20 02:26N 34°39' E 135°15'0 0.0
2018-Apr-20 01:59N 34°39' E 135°15'0 0.0
2018-Apr-20 01:29N 34°39' E 135°15'0 0.0
2018-Apr-20 00:59N 34°39' E 135°15'0 0.0
2018-Apr-20 00:29N 34°39' E 135°15'0 0.0
2018-Apr-19 23:56N 34°39' E 135°15'0 0.0
2018-Apr-19 23:29N 34°39' E 135°15'0 0.0
2018-Apr-19 22:59N 34°39' E 135°15'0 0.1
2018-Apr-19 22:29N 34°39' E 135°15'0 0.1
2018-Apr-19 21:56N 34°39' E 135°15'0 0.0
2018-Apr-19 21:26N 34°39' E 135°15'0 0.0
2018-Apr-19 20:56N 34°39' E 135°15'0 0.0
2018-Apr-19 20:26N 34°39' E 135°15'0 0.1
2018-Apr-19 19:56N 34°39' E 135°15'0 0.1
2018-Apr-19 19:29N 34°39' E 135°15'0 0.0
2018-Apr-19 18:59N 34°39' E 135°15'0 0.0
2018-Apr-19 18:29N 34°39' E 135°15'0 0.0
2018-Apr-19 17:59N 34°39' E 135°15'0 0.0
2018-Apr-19 17:26N 34°39' E 135°15'0 0.0
2018-Apr-19 16:59N 34°39' E 135°15'0 0.0
2018-Apr-19 16:29N 34°39' E 135°15'0 0.0
2018-Apr-19 15:59N 34°39' E 135°15'0 0.0
2018-Apr-19 15:26N 34°39' E 135°15'0 1.2
2018-Apr-19 15:01N 34°39' E 135°15'4 7.6
2018-Apr-19 14:30N 34°35' E 135°15'815.5
2018-Apr-19 14:00N 34°29' E 135°10'917.7
2018-Apr-19 13:30N 34°22' E 135°03'918.1
2018-Apr-19 13:00N 34°14' E 134°59'612.7
2018-Apr-19 12:30N 34°07' E 134°59'612.6
2018-Apr-19 12:00N 34°01' E 134°59'611.3
2018-Apr-19 11:30N 33°56' E 134°57'5 9.1
2018-Apr-19 11:00N 33°51' E 134°57'713.7
2018-Apr-19 10:30N 33°44' E 134°58'713.9
2018-Apr-19 10:00N 33°37' E 134°60'814.4
2018-Apr-19 09:29N 33°30' E 134°59'814.8
2018-Apr-19 08:55N 33°21' E 134°59'814.4
2018-Apr-19 08:22N 33°14' E 134°60'512.6
2018-Apr-19 08:00N 33°09' E 135°01'1813.5
2018-Apr-19 06:40N 33°13' E 135°22'414.3
2018-Apr-19 06:22N 33°14' E 135°27'10614.0
2018-Apr-18 22:50N 33°50' E 137°26'614.4
2018-Apr-18 22:25N 33°53' E 137°33'614.4
2018-Apr-18 22:00N 33°56' E 137°39'714.5
2018-Apr-18 21:30N 33°59' E 137°47'714.4
2018-Apr-18 21:00N 34°02' E 137°55'714.1
2018-Apr-18 20:30N 34°05' E 138°02'813.9
2018-Apr-18 19:56N 34°08' E 138°11'713.9
2018-Apr-18 19:28N 34°11' E 138°18'613.7
2018-Apr-18 18:59N 34°14' E 138°25'813.7
2018-Apr-18 18:23N 34°17' E 138°35'513.6
2018-Apr-18 17:58N 34°19' E 138°41'613.4
2018-Apr-18 17:30N 34°23' E 138°47'713.1
2018-Apr-18 16:58N 34°26' E 138°54'612.8
2018-Apr-18 16:30N 34°29' E 139°01'712.7
2018-Apr-18 15:59N 34°32' E 139°08'612.2
2018-Apr-18 15:30N 34°35' E 139°14'712.9
2018-Apr-18 14:59N 34°35' E 139°22'612.8
2018-Apr-18 14:30N 34°37' E 139°29'713.5
2018-Apr-18 14:00N 34°42' E 139°35'714.3
2018-Apr-18 13:30N 34°48' E 139°40'713.7
2018-Apr-18 13:00N 34°55' E 139°41'611.7
2018-Apr-18 12:30N 35°00' E 139°42'611.1
2018-Apr-18 12:00N 35°05' E 139°45'611.7
2018-Apr-18 11:30N 35°11' E 139°46'510.8
2018-Apr-18 11:00N 35°16' E 139°45'713.7
2018-Apr-18 10:30N 35°23' E 139°42'714.9
2018-Apr-18 10:00N 35°28' E 139°48'612.0
2018-Apr-18 09:30N 35°34' E 139°49'3 6.5
2018-Apr-18 09:00N 35°36' E 139°46'0 0.1
2018-Apr-18 07:52N 35°36' E 139°46'0 0.0
2018-Apr-18 07:10N 35°36' E 139°46'0 0.0
2018-Apr-17 23:19N 35°36' E 139°46'0 0.0
2018-Apr-17 23:00N 35°36' E 139°46'2 3.3
2018-Apr-17 22:30N 35°35' E 139°47'4 8.8
2018-Apr-17 21:59N 35°32' E 139°52'612.2
2018-Apr-17 21:31N 35°27' E 139°50'612.8
2018-Apr-17 21:00N 35°21' E 139°45'510.8
2018-Apr-17 20:30N 35°16' E 139°46'611.8
2018-Apr-17 20:00N 35°10' E 139°47'4 8.9
2018-Apr-17 19:30N 35°06' E 139°45'4 8.7
2018-Apr-17 19:00N 35°02' E 139°42'510.1
2018-Apr-17 18:30N 34°57' E 139°41'4 7.5
2018-Apr-17 18:00N 34°54' E 139°41'4 8.4
2018-Apr-17 17:30N 34°51' E 139°45'4 8.2
2018-Apr-17 17:00N 34°49' E 139°49'611.0
2018-Apr-17 16:29N 34°46' E 139°55'510.7
2018-Apr-17 16:00N 34°47' E 140°01'612.4
2018-Apr-17 15:30N 34°51' E 140°07'612.7
2018-Apr-17 15:00N 34°54' E 140°14'612.6
2018-Apr-17 14:30N 34°58' E 140°20'713.2
2018-Apr-17 14:00N 35°02' E 140°26'1113.2
2018-Apr-17 13:11N 35°08' E 140°37'  
Track history (hours):
 
Tides and Currents Weather Stations Pressure Air Temp Water Temp Dewpoint Dewpoint Depression Visibility Wind Speed Wind Dir Waves Ship Positions

Nyk Apollo

Last reported at 2018-Apr-23 06:39 UTC. Time now 2018-Apr-24 14:33 UTC.
Position N 22°10' E 119°57'.

Length 299.9 m; beam 40 m.

Type: Cargo ship. MMSI: 355981000.

Date/timePositionNaut miles runAvg speedWind from/ knotsBaromVisibWave heightAir tempDewpointWater temp
2018-Apr-23 06:39N 22°10' E 119°57'320.0
2018-Apr-23 06:29N 22°13' E 119°59'919.4
2018-Apr-23 06:00N 22°22' E 120°03'1019.2
2018-Apr-23 05:30N 22°30' E 120°09'714.8
2018-Apr-23 05:00N 22°33' E 120°16'4 7.6
2018-Apr-23 04:30N 22°33' E 120°20'0 0.6
2018-Apr-23 04:01N 22°33' E 120°20'0 0.1
2018-Apr-23 03:31N 22°33' E 120°20'0 0.0
2018-Apr-23 02:46N 22°33' E 120°20'0 0.1
2018-Apr-23 02:28N 22°33' E 120°20'0 0.0
2018-Apr-23 01:52N 22°33' E 120°20'0 0.0
2018-Apr-23 01:28N 22°33' E 120°20'0 0.0
2018-Apr-23 00:58N 22°33' E 120°20'0 0.0
2018-Apr-23 00:24N 22°33' E 120°20'0 0.0
2018-Apr-22 23:58N 22°33' E 120°20'0 0.0
2018-Apr-22 23:28N 22°33' E 120°20'0 0.1
2018-Apr-22 22:55N 22°33' E 120°20'0 0.0
2018-Apr-22 22:30N 22°33' E 120°20'0 0.0
2018-Apr-22 21:58N 22°33' E 120°20'0 0.1
2018-Apr-22 21:28N 22°33' E 120°20'0 0.0
2018-Apr-22 21:00N 22°33' E 120°20'1 1.4
2018-Apr-22 20:29N 22°33' E 120°19'3 7.1
2018-Apr-22 20:00N 22°32' E 120°16'3 6.3
2018-Apr-22 19:30N 22°33' E 120°12'510.2
2018-Apr-22 19:00N 22°37' E 120°09'5 9.8
2018-Apr-22 18:30N 22°42' E 120°08'5 9.8
2018-Apr-22 18:00N 22°46' E 120°05'714.7
2018-Apr-22 17:31N 22°52' E 120°00'714.8
2018-Apr-22 17:00N 22°59' E 119°57'714.2
2018-Apr-22 16:29N 23°06' E 119°55'714.2
2018-Apr-22 16:00N 23°12' E 119°55'714.2
2018-Apr-22 15:30N 23°19' E 119°54'815.8
2018-Apr-22 15:00N 23°27' E 119°55'816.1
2018-Apr-22 14:30N 23°35' E 119°55'816.3
2018-Apr-22 14:00N 23°43' E 119°57'917.3
2018-Apr-22 13:30N 23°52' E 119°58'917.9
2018-Apr-22 13:00N 23°60' E 120°03'917.7
2018-Apr-22 12:30N 24°07' E 120°08'917.8
2018-Apr-22 12:00N 24°14' E 120°14'917.8
2018-Apr-22 11:30N 24°21' E 120°20'917.4
2018-Apr-22 11:00N 24°29' E 120°25'917.2
2018-Apr-22 10:31N 24°36' E 120°30'1017.0
2018-Apr-22 09:56N 24°45' E 120°35'716.6
2018-Apr-22 09:30N 24°51' E 120°38'916.9
2018-Apr-22 08:59N 24°58' E 120°44'817.0
2018-Apr-22 08:30N 25°05' E 120°49'817.1
2018-Apr-22 08:00N 25°12' E 120°54'5518.3
2018-Apr-22 05:01N 25°51' E 121°36'119.1
2018-Apr-22 04:58N 25°52' E 121°37'918.6
2018-Apr-22 04:28N 25°58' E 121°45'918.5
2018-Apr-22 04:00N 26°03' E 121°53'918.1
2018-Apr-22 03:28N 26°09' E 122°01'66618.2
2018-Apr-20 14:46N 32°05' E 132°46'1918.1
2018-Apr-20 13:42N 32°15' E 133°05'717.8
2018-Apr-20 13:20N 32°18' E 133°12'618.4
2018-Apr-20 12:59N 32°22' E 133°19'7918.2
2018-Apr-20 08:38N 33°08' E 134°36'218.8
2018-Apr-20 08:30N 33°09' E 134°38'917.8
2018-Apr-20 08:00N 33°17' E 134°43'1018.6
2018-Apr-20 07:28N 33°26' E 134°47'918.8
2018-Apr-20 07:00N 33°34' E 134°50'1018.8
2018-Apr-20 06:30N 33°43' E 134°54'1019.2
2018-Apr-20 06:00N 33°53' E 134°54'919.1
2018-Apr-20 05:30N 34°02' E 134°55'917.7
2018-Apr-20 05:00N 34°11' E 134°58'612.9
2018-Apr-20 04:30N 34°17' E 134°58'918.1
2018-Apr-20 04:00N 34°25' E 135°04'1019.5
2018-Apr-20 03:30N 34°32' E 135°13'815.1
2018-Apr-20 03:00N 34°39' E 135°16'1 2.1
2018-Apr-20 02:26N 34°39' E 135°15'0 0.0
2018-Apr-20 01:59N 34°39' E 135°15'0 0.0
2018-Apr-20 01:29N 34°39' E 135°15'0 0.0
2018-Apr-20 00:59N 34°39' E 135°15'0 0.0
2018-Apr-20 00:29N 34°39' E 135°15'0 0.0
2018-Apr-19 23:56N 34°39' E 135°15'0 0.0
2018-Apr-19 23:29N 34°39' E 135°15'0 0.0
2018-Apr-19 22:59N 34°39' E 135°15'0 0.1
2018-Apr-19 22:29N 34°39' E 135°15'0 0.1
2018-Apr-19 21:56N 34°39' E 135°15'0 0.0
2018-Apr-19 21:26N 34°39' E 135°15'0 0.0
2018-Apr-19 20:56N 34°39' E 135°15'0 0.0
2018-Apr-19 20:26N 34°39' E 135°15'0 0.1
2018-Apr-19 19:56N 34°39' E 135°15'0 0.1
2018-Apr-19 19:29N 34°39' E 135°15'0 0.0
2018-Apr-19 18:59N 34°39' E 135°15'0 0.0
2018-Apr-19 18:29N 34°39' E 135°15'0 0.0
2018-Apr-19 17:59N 34°39' E 135°15'0 0.0
2018-Apr-19 17:26N 34°39' E 135°15'0 0.0
2018-Apr-19 16:59N 34°39' E 135°15'0 0.0
2018-Apr-19 16:29N 34°39' E 135°15'0 0.0
2018-Apr-19 15:59N 34°39' E 135°15'0 0.0
2018-Apr-19 15:26N 34°39' E 135°15'0 1.2
2018-Apr-19 15:01N 34°39' E 135°15'4 7.6
2018-Apr-19 14:30N 34°35' E 135°15'815.5
2018-Apr-19 14:00N 34°29' E 135°10'917.7
2018-Apr-19 13:30N 34°22' E 135°03'918.1
2018-Apr-19 13:00N 34°14' E 134°59'612.7
2018-Apr-19 12:30N 34°07' E 134°59'612.6
2018-Apr-19 12:00N 34°01' E 134°59'611.3
2018-Apr-19 11:30N 33°56' E 134°57'5 9.1
2018-Apr-19 11:00N 33°51' E 134°57'713.7
2018-Apr-19 10:30N 33°44' E 134°58'713.9
2018-Apr-19 10:00N 33°37' E 134°60'814.4
2018-Apr-19 09:29N 33°30' E 134°59'814.8
2018-Apr-19 08:55N 33°21' E 134°59'814.4
2018-Apr-19 08:22N 33°14' E 134°60'512.6
2018-Apr-19 08:00N 33°09' E 135°01'1813.5
2018-Apr-19 06:40N 33°13' E 135°22'414.3
2018-Apr-19 06:22N 33°14' E 135°27'10614.0
2018-Apr-18 22:50N 33°50' E 137°26'614.4
2018-Apr-18 22:25N 33°53' E 137°33'614.4
2018-Apr-18 22:00N 33°56' E 137°39'714.5
2018-Apr-18 21:30N 33°59' E 137°47'714.4
2018-Apr-18 21:00N 34°02' E 137°55'714.1
2018-Apr-18 20:30N 34°05' E 138°02'813.9
2018-Apr-18 19:56N 34°08' E 138°11'713.9
2018-Apr-18 19:28N 34°11' E 138°18'613.7
2018-Apr-18 18:59N 34°14' E 138°25'813.7
2018-Apr-18 18:23N 34°17' E 138°35'513.6
2018-Apr-18 17:58N 34°19' E 138°41'613.4
2018-Apr-18 17:30N 34°23' E 138°47'713.1
2018-Apr-18 16:58N 34°26' E 138°54'612.8
2018-Apr-18 16:30N 34°29' E 139°01'712.7
2018-Apr-18 15:59N 34°32' E 139°08'612.2
2018-Apr-18 15:30N 34°35' E 139°14'712.9
2018-Apr-18 14:59N 34°35' E 139°22'612.8
2018-Apr-18 14:30N 34°37' E 139°29'713.5
2018-Apr-18 14:00N 34°42' E 139°35'714.3
2018-Apr-18 13:30N 34°48' E 139°40'713.7
2018-Apr-18 13:00N 34°55' E 139°41'611.7
2018-Apr-18 12:30N 35°00' E 139°42'611.1
2018-Apr-18 12:00N 35°05' E 139°45'611.7
2018-Apr-18 11:30N 35°11' E 139°46'510.8
2018-Apr-18 11:00N 35°16' E 139°45'713.7
2018-Apr-18 10:30N 35°23' E 139°42'714.9
2018-Apr-18 10:00N 35°28' E 139°48'612.0
2018-Apr-18 09:30N 35°34' E 139°49'3 6.5
2018-Apr-18 09:00N 35°36' E 139°46'0 0.1
2018-Apr-18 07:52N 35°36' E 139°46'0 0.0
2018-Apr-18 07:10N 35°36' E 139°46'0 0.0
2018-Apr-17 23:19N 35°36' E 139°46'0 0.0
2018-Apr-17 23:00N 35°36' E 139°46'2 3.3
2018-Apr-17 22:30N 35°35' E 139°47'4 8.8
2018-Apr-17 21:59N 35°32' E 139°52'612.2
2018-Apr-17 21:31N 35°27' E 139°50'612.8
2018-Apr-17 21:00N 35°21' E 139°45'510.8
2018-Apr-17 20:30N 35°16' E 139°46'611.8
2018-Apr-17 20:00N 35°10' E 139°47'4 8.9
2018-Apr-17 19:30N 35°06' E 139°45'4 8.7
2018-Apr-17 19:00N 35°02' E 139°42'510.1
2018-Apr-17 18:30N 34°57' E 139°41'4 7.5
2018-Apr-17 18:00N 34°54' E 139°41'4 8.4
2018-Apr-17 17:30N 34°51' E 139°45'4 8.2
2018-Apr-17 17:00N 34°49' E 139°49'611.0
2018-Apr-17 16:29N 34°46' E 139°55'510.7
2018-Apr-17 16:00N 34°47' E 140°01'612.4
2018-Apr-17 15:30N 34°51' E 140°07'612.7
2018-Apr-17 15:00N 34°54' E 140°14'612.6
2018-Apr-17 14:30N 34°58' E 140°20'713.2
2018-Apr-17 14:00N 35°02' E 140°26'1113.2
2018-Apr-17 13:11N 35°08' E 140°37'  

Dump ship's entire track history